createdAt,value
2022-10-21T00:06:23.063Z,6.97
2022-10-21T00:11:10.892Z,5.72
2022-10-21T00:16:04.349Z,6.53
2022-10-21T00:20:52.219Z,6.75
2022-10-21T00:25:37.299Z,7.03
2022-10-21T00:30:22.733Z,7.30
2022-10-21T00:35:08.701Z,4.95
2022-10-21T00:39:57.164Z,6.78
2022-10-21T00:44:43.933Z,8.75
2022-10-21T00:49:35.430Z,4.88
2022-10-21T00:54:21.776Z,5.53
2022-10-21T00:59:10.145Z,5.13
2022-10-21T01:03:55.171Z,6.22
2022-10-21T01:08:41.408Z,8.32
2022-10-21T01:13:36.505Z,5.93
2022-10-21T01:18:33.914Z,8.32
2022-10-21T01:23:52.765Z,11.85
2022-10-21T01:28:52.813Z,5.88
2022-10-21T01:33:52.820Z,10.82
2022-10-21T01:38:45.029Z,7.55
2022-10-21T01:48:23.652Z,12.25
2022-10-21T01:53:13.444Z,14.95
2022-10-21T01:58:02.340Z,18.35
2022-10-21T02:02:50.937Z,18.88
2022-10-21T02:07:36.266Z,27.42
2022-10-21T02:12:26.106Z,25.20
2022-10-21T02:17:14.356Z,34.58
2022-10-21T02:22:03.325Z,31.42
2022-10-21T02:26:48.741Z,26.65
2022-10-21T02:31:50.314Z,33.30
2022-10-21T02:36:45.260Z,30.90
2022-10-21T02:41:32.026Z,26.70
2022-10-21T02:46:17.977Z,24.98
2022-10-21T02:51:07.270Z,21.83
2022-10-21T02:55:52.538Z,19.05
2022-10-21T03:00:37.659Z,14.98
2022-10-21T03:05:23.090Z,19.92
2022-10-21T03:10:11.718Z,18.83
2022-10-21T03:14:57.566Z,13.15
2022-10-21T03:19:42.600Z,16.55
2022-10-21T03:24:29.016Z,15.27
2022-10-21T03:29:17.005Z,15.48
2022-10-21T03:34:02.286Z,12.32
2022-10-21T03:38:47.299Z,16.75
2022-10-21T03:43:32.633Z,10.65
2022-10-21T03:48:20.314Z,13.73
2022-10-21T03:53:13.807Z,11.30
2022-10-21T03:58:09.578Z,11.88
2022-10-21T04:02:54.627Z,8.48
2022-10-21T04:07:42.677Z,13.60
2022-10-21T04:12:27.785Z,12.52
2022-10-21T04:17:13.147Z,14.57
2022-10-21T04:21:58.155Z,13.48
2022-10-21T04:26:46.125Z,17.08
2022-10-21T04:31:32.240Z,13.50
2022-10-21T04:36:17.720Z,16.63
2022-10-21T04:45:57.864Z,20.05
2022-10-21T04:50:42.893Z,13.50
2022-10-21T04:55:28.199Z,12.40
2022-10-21T05:00:14.851Z,10.68
2022-10-21T05:05:02.735Z,10.60
2022-10-21T05:09:47.836Z,8.70
2022-10-21T05:14:33.139Z,14.15
2022-10-21T05:19:18.352Z,13.73
2022-10-21T05:24:06.691Z,12.90
2022-10-21T05:28:51.716Z,11.70
2022-10-21T05:33:37.070Z,11.13
2022-10-21T05:38:22.110Z,10.95
2022-10-21T05:43:10.015Z,10.60
2022-10-21T05:47:55.053Z,9.95
2022-10-21T05:52:40.919Z,9.55
2022-10-21T05:57:26.335Z,9.38
2022-10-21T06:02:15.125Z,6.55
2022-10-21T06:07:00.218Z,9.45
2022-10-21T06:11:45.577Z,11.10
2022-10-21T06:16:30.608Z,10.18
2022-10-21T06:21:18.531Z,6.10
2022-10-21T06:26:05.193Z,9.55
2022-10-21T06:30:50.987Z,9.80
2022-10-21T06:35:36.135Z,9.80
2022-10-21T06:40:24.218Z,6.10
2022-10-21T06:45:10.127Z,11.15
2022-10-21T06:49:55.452Z,9.27
2022-10-21T06:54:40.557Z,7.35
2022-10-21T06:59:28.677Z,11.05
2022-10-21T07:04:14.133Z,8.45
2022-10-21T07:08:59.638Z,10.25
2022-10-21T07:13:44.809Z,10.32
2022-10-21T07:18:33.356Z,9.57
2022-10-21T07:23:18.450Z,10.55
2022-10-21T07:28:03.761Z,6.15
2022-10-21T07:32:48.955Z,13.40
2022-10-21T07:37:37.114Z,10.70
2022-10-21T07:42:24.397Z,9.93
2022-10-21T07:47:09.739Z,8.38
2022-10-21T07:51:54.996Z,10.90
2022-10-21T07:56:45.950Z,13.52
2022-10-21T08:01:31.989Z,10.50
2022-10-21T08:06:20.026Z,11.23
2022-10-21T08:11:06.406Z,13.27
2022-10-21T08:15:57.060Z,10.32
2022-10-21T08:20:43.752Z,11.30
2022-10-21T08:25:30.242Z,8.55
2022-10-21T08:30:15.803Z,10.50
2022-10-21T08:35:03.689Z,10.10
2022-10-21T08:39:49.703Z,10.25
2022-10-21T08:44:44.744Z,7.57
2022-10-21T08:49:37.269Z,11.15
2022-10-21T08:54:31.231Z,7.07
2022-10-21T08:59:22.075Z,7.63
2022-10-21T09:04:17.279Z,9.73
2022-10-21T09:09:09.891Z,10.40
2022-10-21T09:14:38.839Z,4.80
2022-10-21T09:19:38.830Z,7.88
2022-10-21T09:24:35.263Z,10.10
2022-10-21T09:29:35.084Z,10.43
2022-10-21T09:34:32.542Z,10.13
2022-10-21T09:39:21.395Z,9.77
2022-10-21T09:44:06.887Z,8.27
2022-10-21T09:54:11.004Z,11.05
2022-10-21T09:59:08.135Z,8.07
2022-10-21T10:03:56.534Z,10.35
2022-10-21T10:08:44.328Z,12.70
2022-10-21T10:13:31.732Z,11.13
2022-10-21T10:18:24.863Z,10.95
2022-10-21T10:23:21.216Z,12.98
2022-10-21T10:28:19.560Z,13.48
2022-10-21T10:33:11.142Z,15.07
2022-10-21T10:37:58.623Z,9.77
2022-10-21T10:42:49.373Z,13.23
2022-10-21T10:47:41.555Z,16.92
2022-10-21T10:52:28.029Z,12.75
2022-10-21T10:57:18.192Z,10.93
2022-10-21T11:02:21.529Z,10.13
2022-10-21T11:07:17.181Z,9.27
2022-10-21T11:12:04.226Z,11.52
2022-10-21T11:17:10.643Z,12.00
2022-10-21T11:21:57.586Z,11.00
2022-10-21T11:26:53.150Z,9.05
2022-10-21T11:32:06.603Z,12.20
2022-10-21T11:37:06.924Z,12.40
2022-10-21T11:41:58.367Z,12.02
2022-10-21T11:51:42.919Z,19.95
2022-10-21T11:56:43.283Z,15.48
2022-10-21T12:01:40.183Z,9.07
2022-10-21T12:06:38.631Z,18.55
2022-10-21T12:11:27.727Z,18.25
2022-10-21T12:16:19.462Z,16.13
2022-10-21T12:21:04.976Z,11.48
2022-10-21T12:25:59.120Z,8.85
2022-10-21T12:30:50.993Z,6.53
2022-10-21T12:35:50.912Z,3.45
2022-10-21T12:40:42.266Z,8.27
2022-10-21T12:45:33.390Z,9.43
2022-10-21T12:50:29.878Z,9.23
2022-10-21T12:55:27.014Z,7.35
2022-10-21T13:00:54.426Z,8.13
2022-10-21T13:06:02.297Z,6.35
2022-10-21T13:11:41.131Z,8.80
2022-10-21T13:16:39.776Z,4.22
2022-10-21T13:21:38.358Z,7.55
2022-10-21T13:26:27.235Z,5.95
2022-10-21T13:31:24.102Z,5.45
2022-10-21T13:36:15.112Z,6.47
2022-10-21T13:41:03.057Z,9.40
2022-10-21T13:45:51.792Z,8.85
2022-10-21T13:50:42.192Z,6.10
2022-10-21T13:55:28.692Z,8.60
2022-10-21T14:00:23.075Z,10.85
2022-10-21T14:05:10.964Z,9.25
2022-10-21T14:10:00.900Z,9.02
2022-10-21T14:14:46.601Z,7.78
2022-10-21T14:19:35.526Z,7.68
2022-10-21T14:24:34.746Z,8.48
2022-10-21T14:29:24.642Z,5.82
2022-10-21T14:34:10.302Z,7.93
2022-10-21T14:38:58.988Z,11.45
2022-10-21T14:43:47.003Z,9.48
2022-10-21T14:48:36.683Z,14.20
2022-10-21T14:53:26.352Z,13.10
2022-10-21T14:58:14.014Z,14.43
2022-10-21T15:02:59.962Z,9.00
2022-10-21T15:07:47.694Z,13.40
2022-10-21T15:12:42.182Z,15.05
2022-10-21T15:17:27.409Z,12.50
2022-10-21T15:22:26.356Z,15.18
2022-10-21T15:27:19.877Z,17.95
2022-10-21T15:32:06.324Z,11.50
2022-10-21T15:36:51.388Z,16.48
2022-10-21T15:41:36.939Z,15.57
2022-10-21T15:46:24.932Z,16.20
2022-10-21T15:51:10.201Z,15.23
2022-10-21T15:55:56.083Z,18.48
2022-10-21T16:00:41.569Z,9.05
2022-10-21T16:05:29.341Z,10.65
2022-10-21T16:10:23.577Z,10.57
2022-10-21T16:15:09.450Z,9.98
2022-10-21T16:19:55.159Z,8.35
2022-10-21T16:24:42.979Z,8.70
2022-10-21T16:29:28.545Z,10.57
2022-10-21T16:34:13.606Z,10.48
2022-10-21T16:38:59.656Z,10.10
2022-10-21T16:43:47.646Z,9.00
2022-10-21T16:48:32.978Z,11.68
2022-10-21T16:53:21.026Z,13.63
2022-10-21T16:58:06.423Z,13.75
2022-10-21T17:02:54.674Z,11.55
2022-10-21T17:07:40.184Z,9.68
2022-10-21T17:12:26.701Z,13.95
2022-10-21T17:17:12.094Z,13.55
2022-10-21T17:21:59.922Z,10.93
2022-10-21T17:26:45.455Z,14.50
2022-10-21T17:31:32.423Z,14.05
2022-10-21T17:36:18.307Z,17.77
2022-10-21T17:41:06.073Z,17.92
2022-10-21T17:45:51.395Z,15.38
2022-10-21T17:50:38.668Z,16.33
2022-10-21T17:55:24.325Z,12.93
2022-10-21T18:00:13.030Z,11.30
2022-10-21T18:04:58.492Z,13.15
2022-10-21T18:09:43.604Z,13.32
2022-10-21T18:14:28.988Z,15.05
2022-10-21T18:19:16.628Z,15.65
2022-10-21T18:24:02.094Z,13.50
2022-10-21T18:28:47.334Z,12.70
2022-10-21T18:33:33.045Z,18.75
2022-10-21T18:38:20.724Z,19.15
2022-10-21T18:43:06.013Z,12.80
2022-10-21T18:47:51.843Z,17.23
2022-10-21T18:52:37.199Z,18.38
2022-10-21T18:57:24.864Z,12.73
2022-10-21T19:02:13.957Z,16.70
2022-10-21T19:06:59.921Z,22.45
2022-10-21T19:11:45.732Z,22.20
2022-10-21T19:16:33.675Z,18.23
2022-10-21T19:21:20.764Z,20.60
2022-10-21T19:26:07.047Z,18.88
2022-10-21T19:30:52.442Z,18.42
2022-10-21T19:35:43.662Z,15.55
2022-10-21T19:40:34.986Z,21.30
2022-10-21T19:45:23.902Z,24.93
2022-10-21T19:54:59.468Z,35.58
2022-10-21T19:59:44.768Z,38.75
2022-10-21T20:04:32.501Z,25.58
2022-10-21T20:09:20.527Z,21.92
2022-10-21T20:14:08.682Z,18.48
2022-10-21T20:18:54.097Z,21.17
2022-10-21T20:23:39.786Z,20.55
2022-10-21T20:28:25.862Z,23.38
2022-10-21T20:33:13.541Z,20.50
2022-10-21T20:37:58.845Z,24.65
2022-10-21T20:42:48.985Z,20.55
2022-10-21T20:47:35.214Z,22.45
2022-10-21T20:52:22.886Z,26.77
2022-10-21T20:57:08.187Z,20.15
2022-10-21T21:01:53.318Z,16.15
2022-10-21T21:06:40.268Z,19.23
2022-10-21T21:11:29.447Z,10.57
2022-10-21T21:16:16.555Z,19.35
2022-10-21T21:21:05.521Z,14.07
2022-10-21T21:25:50.812Z,17.38
2022-10-21T21:30:38.432Z,16.75
2022-10-21T21:35:23.746Z,40.85
2022-10-21T21:40:10.760Z,13.80
2022-10-21T21:44:56.088Z,22.38
2022-10-21T21:49:43.893Z,21.77
2022-10-21T21:54:29.341Z,12.63
2022-10-21T21:59:14.387Z,15.82
2022-10-21T22:04:01.016Z,15.90
2022-10-21T22:08:49.599Z,16.80
2022-10-21T22:13:34.764Z,13.80
2022-10-21T22:18:20.703Z,10.38
2022-10-21T22:23:05.692Z,13.93
2022-10-21T22:27:53.955Z,18.20
2022-10-21T22:32:40.068Z,10.45
2022-10-21T22:37:25.428Z,15.15
2022-10-21T22:42:10.662Z,11.65
2022-10-21T22:46:58.671Z,11.07
2022-10-21T22:51:44.628Z,13.48
2022-10-21T22:56:30.749Z,9.38
2022-10-21T23:01:15.913Z,14.05
2022-10-21T23:06:04.174Z,13.02
2022-10-21T23:10:51.538Z,13.50
2022-10-21T23:15:37.537Z,11.82
2022-10-21T23:20:22.683Z,18.85
2022-10-21T23:25:12.011Z,13.88
2022-10-21T23:29:57.068Z,10.05
2022-10-21T23:34:42.413Z,11.55
2022-10-21T23:39:27.493Z,10.13
2022-10-21T23:44:15.680Z,13.13
2022-10-21T23:49:00.829Z,13.25
2022-10-21T23:53:46.145Z,13.68
2022-10-21T23:58:31.798Z,16.23
